createdAt,value
2018-08-03T00:00:03.896Z,20.5
2018-08-03T00:01:03.764Z,20.437
2018-08-03T00:02:03.328Z,20.437
2018-08-03T00:03:03.785Z,20.375
2018-08-03T00:04:03.330Z,20.375
2018-08-03T00:05:04.002Z,20.375
2018-08-03T00:06:03.461Z,20.312
2018-08-03T00:07:03.697Z,20.312
2018-08-03T00:08:04.082Z,20.25
2018-08-03T00:09:03.879Z,20.25
2018-08-03T00:10:04.231Z,20.25
2018-08-03T00:11:03.671Z,20.312
2018-08-03T00:12:04.176Z,20.312
2018-08-03T00:13:03.587Z,20.312
2018-08-03T00:14:04.109Z,20.375
2018-08-03T00:15:03.848Z,20.375
2018-08-03T00:16:03.344Z,20.375
2018-08-03T00:17:03.850Z,20.312
2018-08-03T00:18:03.991Z,20.312
2018-08-03T00:19:03.557Z,20.25
2018-08-03T00:20:03.429Z,20.25
2018-08-03T00:21:04.145Z,20.187
2018-08-03T00:22:03.636Z,20.187
2018-08-03T00:24:03.667Z,20.187
2018-08-03T00:25:04.155Z,20.187
2018-08-03T00:26:03.408Z,20.187
2018-08-03T00:27:04.070Z,20.187
2018-08-03T00:28:03.664Z,20.187
2018-08-03T00:29:03.969Z,20.25
2018-08-03T00:30:03.819Z,20.25
2018-08-03T00:31:04.838Z,20.25
2018-08-03T00:32:03.781Z,20.312
2018-08-03T00:33:04.051Z,20.312
2018-08-03T00:34:03.847Z,20.312
2018-08-03T00:35:03.961Z,20.312
2018-08-03T00:36:03.415Z,20.375
2018-08-03T00:37:04.150Z,20.375
2018-08-03T00:38:03.828Z,20.437
2018-08-03T00:39:04.140Z,20.437
2018-08-03T00:40:04.202Z,20.5
2018-08-03T00:41:03.856Z,20.5
2018-08-03T00:42:03.311Z,20.437
2018-08-03T00:43:05.076Z,20.437
2018-08-03T00:44:03.548Z,20.5
2018-08-03T00:45:04.183Z,20.5
2018-08-03T00:46:03.728Z,20.437
2018-08-03T00:47:04.341Z,20.437
2018-08-03T00:48:03.667Z,20.375
2018-08-03T00:49:04.285Z,20.375
2018-08-03T00:50:03.717Z,20.312
2018-08-03T00:51:03.984Z,20.25
2018-08-03T00:52:03.598Z,20.125
2018-08-03T00:53:04.186Z,20.125
2018-08-03T00:54:03.487Z,20.062
2018-08-03T00:55:03.743Z,20
2018-08-03T00:56:03.434Z,20
2018-08-03T00:57:04.022Z,19.937
2018-08-03T00:58:03.633Z,19.875
2018-08-03T00:59:04.194Z,19.875
2018-08-03T01:00:03.962Z,19.875
2018-08-03T01:01:03.610Z,19.937
2018-08-03T01:02:04.194Z,19.937
2018-08-03T01:03:03.656Z,19.937
2018-08-03T01:04:04.109Z,20
2018-08-03T01:05:03.540Z,20
2018-08-03T01:06:03.484Z,20
2018-08-03T01:07:03.904Z,19.937
2018-08-03T01:08:03.605Z,19.937
2018-08-03T01:09:04.526Z,19.937
2018-08-03T01:10:03.624Z,19.875
2018-08-03T01:11:21.438Z,19.812
2018-08-03T01:12:03.301Z,19.75
2018-08-03T01:13:04.379Z,19.75
2018-08-03T01:14:03.809Z,19.687
2018-08-03T01:15:03.538Z,19.687
2018-08-03T01:16:04.013Z,19.687
2018-08-03T01:17:03.917Z,19.625
2018-08-03T01:18:04.261Z,19.625
2018-08-03T01:19:03.524Z,19.625
2018-08-03T01:20:04.191Z,19.625
2018-08-03T01:21:03.782Z,19.625
2018-08-03T01:22:03.478Z,19.562
2018-08-03T01:23:03.970Z,19.562
2018-08-03T01:24:03.623Z,19.562
2018-08-03T01:25:04.147Z,19.562
2018-08-03T01:26:03.894Z,19.562
2018-08-03T01:27:03.589Z,19.562
2018-08-03T01:28:04.298Z,19.562
2018-08-03T01:29:03.704Z,19.5
2018-08-03T01:30:03.677Z,19.5
2018-08-03T01:31:03.448Z,19.562
2018-08-03T01:32:04.139Z,19.562
2018-08-03T01:33:03.360Z,19.562
2018-08-03T01:34:04.028Z,19.625
2018-08-03T01:35:03.755Z,19.625
2018-08-03T01:36:03.464Z,19.625
2018-08-03T01:37:03.316Z,19.625
2018-08-03T01:38:04.201Z,19.625
2018-08-03T01:39:04.313Z,19.562
2018-08-03T01:40:03.675Z,19.562
2018-08-03T01:41:05.283Z,19.562
2018-08-03T01:42:04.770Z,19.562
2018-08-03T01:43:03.999Z,19.625
2018-08-03T01:44:03.677Z,19.625
2018-08-03T01:45:03.960Z,19.625
2018-08-03T01:46:03.541Z,19.687
2018-08-03T01:47:04.364Z,19.687
2018-08-03T01:48:03.707Z,19.687
2018-08-03T01:49:04.329Z,19.687
2018-08-03T01:50:04.337Z,19.687
2018-08-03T01:51:03.972Z,19.625
2018-08-03T01:52:03.628Z,19.625
2018-08-03T01:53:03.917Z,19.625
2018-08-03T01:54:03.584Z,19.562
2018-08-03T01:55:04.146Z,19.5
2018-08-03T01:56:03.582Z,19.437
2018-08-03T01:57:03.810Z,19.437
2018-08-03T01:58:03.436Z,19.437
2018-08-03T01:59:03.373Z,19.375
2018-08-03T02:00:03.616Z,19.375
2018-08-03T02:01:04.292Z,19.437
2018-08-03T02:02:04.140Z,19.437
2018-08-03T02:03:03.747Z,19.437
2018-08-03T02:04:03.687Z,19.5
2018-08-03T02:05:04.202Z,19.5
2018-08-03T02:06:03.686Z,19.562
2018-08-03T02:07:04.130Z,19.625
2018-08-03T02:08:03.602Z,19.625
2018-08-03T02:09:05.246Z,19.687
2018-08-03T02:10:03.544Z,19.687
2018-08-03T02:11:03.471Z,19.687
2018-08-03T02:12:04.099Z,19.75
2018-08-03T02:13:03.760Z,19.75
2018-08-03T02:14:03.630Z,19.75
2018-08-03T02:15:04.349Z,19.75
2018-08-03T02:16:03.970Z,19.75
2018-08-03T02:17:03.673Z,19.812
2018-08-03T02:18:03.395Z,19.812
2018-08-03T02:19:03.837Z,19.75
2018-08-03T02:20:03.692Z,19.687
2018-08-03T02:21:04.000Z,19.687
2018-08-03T02:22:03.380Z,19.687
2018-08-03T02:23:03.460Z,19.625
2018-08-03T02:24:04.102Z,19.625
2018-08-03T02:25:03.740Z,19.562
2018-08-03T02:26:03.553Z,19.562
2018-08-03T02:27:05.286Z,19.562
2018-08-03T02:28:03.961Z,19.5
2018-08-03T02:29:03.719Z,19.5
2018-08-03T02:30:03.757Z,19.562
2018-08-03T02:31:04.210Z,19.562
2018-08-03T02:32:03.779Z,19.562
2018-08-03T02:33:03.401Z,19.625
2018-08-03T02:34:04.035Z,19.625
2018-08-03T02:35:03.755Z,19.562
2018-08-03T02:36:04.193Z,19.562
2018-08-03T02:37:03.778Z,19.5
2018-08-03T02:38:04.446Z,19.5
2018-08-03T02:39:04.090Z,19.5
2018-08-03T02:40:03.772Z,19.5
2018-08-03T02:41:03.508Z,19.437
2018-08-03T02:42:04.224Z,19.437
2018-08-03T02:43:04.147Z,19.375
2018-08-03T02:44:03.711Z,19.312
2018-08-03T02:45:03.403Z,19.312
2018-08-03T02:46:04.111Z,19.312
2018-08-03T02:47:03.790Z,19.25
2018-08-03T02:48:03.504Z,19.25
2018-08-03T02:49:04.107Z,19.187
2018-08-03T02:50:03.607Z,19.187
2018-08-03T02:51:04.454Z,19.25
2018-08-03T02:52:03.924Z,19.25
2018-08-03T02:53:03.677Z,19.25
2018-08-03T02:54:04.238Z,19.25
2018-08-03T02:55:03.834Z,19.25
2018-08-03T02:56:03.547Z,19.25
2018-08-03T02:57:04.199Z,19.25
2018-08-03T02:58:03.830Z,19.25
2018-08-03T02:59:04.261Z,19.312
2018-08-03T03:00:03.858Z,19.312
2018-08-03T03:01:03.410Z,19.312
2018-08-03T03:02:03.497Z,19.375
2018-08-03T03:03:03.998Z,19.437
2018-08-03T03:04:03.928Z,19.437
2018-08-03T03:05:03.868Z,19.5
2018-08-03T03:06:03.460Z,19.562
2018-08-03T03:07:03.773Z,19.562
2018-08-03T03:08:03.504Z,19.5
2018-08-03T03:09:04.305Z,19.562
2018-08-03T03:10:03.908Z,19.562
2018-08-03T03:11:03.743Z,19.562
2018-08-03T03:12:04.193Z,19.562
2018-08-03T03:13:03.842Z,19.562
2018-08-03T03:14:03.419Z,19.562
2018-08-03T03:15:05.187Z,19.562
2018-08-03T03:16:03.557Z,19.562
2018-08-03T03:17:03.911Z,19.5
2018-08-03T03:18:03.564Z,19.437
2018-08-03T03:19:03.915Z,19.375
2018-08-03T03:20:03.614Z,19.25
2018-08-03T03:21:04.217Z,19.187
2018-08-03T03:22:03.624Z,19.187
2018-08-03T03:23:04.222Z,19.125
2018-08-03T03:24:03.634Z,19.187
2018-08-03T03:25:04.423Z,19.125
2018-08-03T03:26:04.016Z,19.125
2018-08-03T03:27:03.777Z,19.062
2018-08-03T03:28:03.539Z,19.062
2018-08-03T03:30:04.204Z,19
2018-08-03T03:31:03.831Z,19
2018-08-03T03:32:04.312Z,19.062
2018-08-03T03:33:03.760Z,19.062
2018-08-03T03:34:03.306Z,19
2018-08-03T03:35:03.902Z,19
2018-08-03T03:36:03.563Z,19
2018-08-03T03:37:04.257Z,19.062
2018-08-03T03:38:03.937Z,19.187
2018-08-03T03:39:03.745Z,19.25
2018-08-03T03:40:04.424Z,19.375
2018-08-03T03:41:03.686Z,19.437
2018-08-03T03:42:04.429Z,19.5
2018-08-03T03:43:03.885Z,19.562
2018-08-03T03:44:03.505Z,19.625
2018-08-03T03:45:04.158Z,19.625
2018-08-03T03:46:03.685Z,19.625
2018-08-03T03:47:03.939Z,19.625
2018-08-03T03:48:03.565Z,19.625
2018-08-03T03:49:04.230Z,19.625
2018-08-03T03:50:03.759Z,19.625
2018-08-03T03:51:03.715Z,19.625
2018-08-03T03:52:03.405Z,19.687
2018-08-03T03:53:03.946Z,19.687
2018-08-03T03:55:03.387Z,19.75
2018-08-03T03:56:04.040Z,19.812
2018-08-03T03:57:03.702Z,19.812
2018-08-03T03:58:03.597Z,19.875
2018-08-03T03:59:04.057Z,19.875
2018-08-03T04:00:03.748Z,19.875
2018-08-03T04:01:04.067Z,19.937
2018-08-03T04:02:04.343Z,19.875
2018-08-03T04:03:03.510Z,19.875
2018-08-03T04:04:04.218Z,19.812
2018-08-03T04:05:03.725Z,19.812
2018-08-03T04:06:04.339Z,19.75
2018-08-03T04:07:03.753Z,19.75
2018-08-03T04:08:03.692Z,19.687
2018-08-03T04:09:03.559Z,19.687
2018-08-03T04:10:04.117Z,19.625
2018-08-03T04:11:04.565Z,19.625
2018-08-03T04:12:04.219Z,19.625
2018-08-03T04:13:03.779Z,19.625
2018-08-03T04:14:03.525Z,19.687
2018-08-03T04:15:04.126Z,19.812
2018-08-03T04:17:05.290Z,19.937
2018-08-03T04:18:04.079Z,19.937
2018-08-03T04:19:03.885Z,20
2018-08-03T04:20:03.727Z,20
2018-08-03T04:21:03.396Z,20.062
2018-08-03T04:22:04.089Z,20.062
2018-08-03T04:23:03.833Z,20.062
2018-08-03T04:24:03.472Z,20.125
2018-08-03T04:25:05.837Z,20.125
2018-08-03T04:26:03.411Z,20.125
2018-08-03T04:27:03.306Z,20.125
2018-08-03T04:28:03.977Z,20.062
2018-08-03T04:29:03.588Z,20
2018-08-03T04:30:04.343Z,20.062
2018-08-03T04:31:03.920Z,20.062
2018-08-03T04:32:03.456Z,20.375
2018-08-03T04:33:03.839Z,20.812
2018-08-03T04:34:04.070Z,21.25
2018-08-03T04:35:03.523Z,21.75
2018-08-03T04:36:03.959Z,22.187
2018-08-03T04:37:03.503Z,22.562
2018-08-03T04:38:03.915Z,23
2018-08-03T04:39:04.176Z,23.437
2018-08-03T04:40:04.146Z,23.875
2018-08-03T04:41:03.940Z,24.187
2018-08-03T04:42:03.832Z,24.5
2018-08-03T04:43:03.530Z,24.812
2018-08-03T04:44:04.254Z,25.125
2018-08-03T04:45:03.581Z,25.437
2018-08-03T04:46:04.099Z,25.687
2018-08-03T04:47:03.666Z,25.875
2018-08-03T04:48:04.293Z,26.125
2018-08-03T04:49:03.899Z,26.312
2018-08-03T04:50:03.553Z,26.437
2018-08-03T04:51:04.296Z,26.562
2018-08-03T04:52:04.076Z,26.562
2018-08-03T04:53:04.553Z,26.687
2018-08-03T04:54:04.098Z,26.687
2018-08-03T04:55:03.668Z,26.75
2018-08-03T04:56:03.440Z,26.812
2018-08-03T04:57:04.117Z,26.875
2018-08-03T04:58:03.639Z,26.875
2018-08-03T04:59:04.198Z,26.875
2018-08-03T05:00:03.771Z,26.75
2018-08-03T05:01:03.515Z,26.687
2018-08-03T05:02:03.508Z,26.625
2018-08-03T05:03:04.053Z,26.437
2018-08-03T05:04:03.672Z,26.25
2018-08-03T05:05:04.208Z,26.062
2018-08-03T05:06:03.801Z,25.875
2018-08-03T05:07:03.581Z,25.687
2018-08-03T05:08:04.193Z,25.5
2018-08-03T05:09:03.782Z,25.25
2018-08-03T05:10:04.320Z,25.125
2018-08-03T05:11:03.711Z,24.875
2018-08-03T05:12:04.106Z,24.687
2018-08-03T05:13:03.751Z,24.5
2018-08-03T05:14:04.261Z,24.375
2018-08-03T05:15:03.799Z,24.187
2018-08-03T05:16:03.450Z,24.125
2018-08-03T05:17:05.389Z,24.062
2018-08-03T05:18:04.932Z,24
2018-08-03T05:19:03.936Z,23.937
2018-08-03T05:20:04.273Z,23.875
2018-08-03T05:21:04.033Z,23.875
2018-08-03T05:22:03.679Z,23.875
2018-08-03T05:23:04.407Z,23.937
2018-08-03T05:24:04.286Z,24.062
2018-08-03T05:25:03.525Z,24.312
2018-08-03T05:26:04.202Z,24.562
2018-08-03T05:27:03.569Z,24.875
2018-08-03T05:28:04.220Z,25.187
2018-08-03T05:29:03.676Z,25.437
2018-08-03T05:30:04.337Z,25.562
2018-08-03T05:31:03.773Z,25.562
2018-08-03T05:32:03.519Z,25.375
2018-08-03T05:33:04.227Z,25.25
2018-08-03T05:34:04.152Z,25.125
2018-08-03T05:35:03.727Z,24.875
2018-08-03T05:36:05.432Z,24.687
2018-08-03T05:37:04.157Z,24.5
2018-08-03T05:38:03.947Z,24.437
2018-08-03T05:39:04.466Z,24.437
2018-08-03T05:40:03.911Z,24.562
2018-08-03T05:41:03.696Z,24.875
2018-08-03T05:42:03.350Z,25.062
2018-08-03T05:43:05.344Z,25.312
2018-08-03T05:44:03.665Z,25.562
2018-08-03T05:45:03.334Z,25.687
2018-08-03T05:46:04.186Z,25.937
2018-08-03T05:47:03.377Z,26
2018-08-03T05:48:04.151Z,26.25
2018-08-03T05:49:04.223Z,26.375
2018-08-03T05:50:03.967Z,26.25
2018-08-03T05:51:03.636Z,26.125
2018-08-03T05:52:04.248Z,25.875
2018-08-03T05:53:03.754Z,25.687
2018-08-03T05:54:03.528Z,25.5
2018-08-03T05:55:04.069Z,25.312
2018-08-03T05:56:03.643Z,25.187
2018-08-03T05:57:04.754Z,25.062
2018-08-03T05:58:04.249Z,24.937
2018-08-03T05:59:03.545Z,24.875
2018-08-03T06:00:04.057Z,24.812
2018-08-03T06:01:05.493Z,24.812
2018-08-03T06:02:03.687Z,24.875
2018-08-03T06:03:03.284Z,25.062
2018-08-03T06:04:03.900Z,25.375
2018-08-03T06:05:03.556Z,25.812
2018-08-03T06:06:03.943Z,26.25
2018-08-03T06:07:03.462Z,26.75
2018-08-03T06:08:04.456Z,27.125
2018-08-03T06:09:04.476Z,27.437
2018-08-03T06:10:03.637Z,27.75
2018-08-03T06:11:04.216Z,27.812
2018-08-03T06:12:03.777Z,28
2018-08-03T06:13:03.570Z,28.25
2018-08-03T06:14:04.257Z,28.25
2018-08-03T06:15:04.154Z,28.25
2018-08-03T06:16:04.056Z,28.062
2018-08-03T06:17:03.986Z,27.937
2018-08-03T06:18:03.589Z,28
2018-08-03T06:19:03.385Z,28.125
2018-08-03T06:20:04.221Z,28.312
2018-08-03T06:21:03.812Z,28.687
2018-08-03T06:22:03.568Z,28.812
2018-08-03T06:23:04.154Z,28.687
2018-08-03T06:24:03.598Z,28.5
2018-08-03T06:25:03.303Z,28.625
2018-08-03T06:26:04.078Z,28.812
2018-08-03T06:27:03.844Z,28.75
2018-08-03T06:28:04.387Z,28.687
2018-08-03T06:29:03.853Z,28.687
2018-08-03T06:30:03.319Z,28.437
2018-08-03T06:31:03.971Z,28.25
2018-08-03T06:32:03.475Z,28.187
2018-08-03T06:33:03.925Z,27.937
2018-08-03T06:34:03.554Z,27.75
2018-08-03T06:35:04.240Z,27.437
2018-08-03T06:36:03.947Z,27.25
2018-08-03T06:37:03.746Z,27.125
2018-08-03T06:38:03.726Z,27.062
2018-08-03T06:39:04.270Z,27
2018-08-03T06:40:03.796Z,27.125
2018-08-03T06:41:04.367Z,27.25
2018-08-03T06:42:03.914Z,27.375
2018-08-03T06:43:03.527Z,27.562
2018-08-03T06:44:04.199Z,27.937
2018-08-03T06:45:03.707Z,28.062
2018-08-03T06:46:05.312Z,28.062
2018-08-03T06:47:03.762Z,28.25
2018-08-03T06:48:03.591Z,28.312
2018-08-03T06:49:03.545Z,28.437
2018-08-03T06:50:03.406Z,28.437
2018-08-03T06:51:04.165Z,28.375
2018-08-03T06:52:03.529Z,28.375
2018-08-03T06:53:04.239Z,28.687
2018-08-03T06:54:03.795Z,28.937
2018-08-03T06:55:03.439Z,28.937
2018-08-03T06:56:04.213Z,28.875
2018-08-03T06:57:03.786Z,28.812
2018-08-03T06:58:03.358Z,28.875
2018-08-03T06:59:03.511Z,28.625
2018-08-03T07:00:04.141Z,28.812
2018-08-03T07:01:05.247Z,28.937
2018-08-03T07:02:04.294Z,29.25
2018-08-03T07:03:03.905Z,29.5
2018-08-03T07:04:03.531Z,29.812
2018-08-03T07:05:04.134Z,29.875
2018-08-03T07:06:03.784Z,29.937
2018-08-03T07:07:03.384Z,30
2018-08-03T07:08:03.413Z,30
2018-08-03T07:09:04.105Z,30.062
2018-08-03T07:10:03.568Z,30.187
2018-08-03T07:11:04.114Z,30.312
2018-08-03T07:12:03.634Z,30.25
2018-08-03T07:13:03.988Z,30.375
2018-08-03T07:14:03.601Z,30.187
2018-08-03T07:15:04.340Z,30
2018-08-03T07:16:03.788Z,30
2018-08-03T07:17:04.339Z,30.187
2018-08-03T07:18:04.437Z,30.187
2018-08-03T07:19:04.004Z,30.062
2018-08-03T07:20:04.950Z,30
2018-08-03T07:21:04.296Z,30.187
2018-08-03T07:22:03.983Z,30.312
2018-08-03T07:23:03.524Z,30.437
2018-08-03T07:24:04.204Z,30.437
2018-08-03T07:25:03.815Z,30.5
2018-08-03T07:26:03.947Z,30.5
2018-08-03T07:27:03.549Z,30.687
2018-08-03T07:28:04.370Z,30.812
2018-08-03T07:29:03.826Z,30.937
2018-08-03T07:30:04.186Z,30.875
2018-08-03T07:31:03.751Z,30.812
2018-08-03T07:32:03.505Z,30.812
2018-08-03T07:33:04.271Z,30.75
2018-08-03T07:34:03.838Z,30.812
2018-08-03T07:35:03.489Z,30.812
2018-08-03T07:36:03.906Z,31
2018-08-03T07:37:03.569Z,30.937
2018-08-03T07:38:03.316Z,30.812
2018-08-03T07:39:04.203Z,30.562
2018-08-03T07:40:03.879Z,30.437
2018-08-03T07:41:03.408Z,30.562
2018-08-03T07:42:04.054Z,30.687
2018-08-03T07:43:03.655Z,30.812
2018-08-03T07:44:03.350Z,30.75
2018-08-03T07:45:04.171Z,31
2018-08-03T07:46:04.062Z,31.25
2018-08-03T07:47:03.644Z,31.437
2018-08-03T07:48:05.417Z,31.375
2018-08-03T07:49:04.048Z,31.562
2018-08-03T07:50:03.495Z,31.5
2018-08-03T07:51:04.152Z,31.125
2018-08-03T07:52:04.075Z,30.937
2018-08-03T07:53:03.916Z,30.812
2018-08-03T07:54:03.944Z,31
2018-08-03T07:55:04.207Z,31.375
2018-08-03T07:56:04.153Z,31.562
2018-08-03T07:57:03.986Z,31.687
2018-08-03T07:58:03.658Z,31.812
2018-08-03T07:59:04.229Z,31.5
2018-08-03T08:00:03.868Z,31.625
2018-08-03T08:01:03.677Z,31.687
2018-08-03T08:02:03.440Z,31.625
2018-08-03T08:03:03.344Z,31.5
2018-08-03T08:04:04.021Z,31.562
2018-08-03T08:05:03.532Z,31.687
2018-08-03T08:06:04.179Z,31.875
2018-08-03T08:07:03.567Z,31.875
2018-08-03T08:08:04.257Z,31.625
2018-08-03T08:09:04.078Z,31.625
2018-08-03T08:10:03.397Z,31.625
2018-08-03T08:11:04.049Z,31.812
2018-08-03T08:12:03.597Z,31.75
2018-08-03T08:13:03.542Z,32.062
2018-08-03T08:14:04.086Z,32.125
2018-08-03T08:15:03.613Z,32.187
2018-08-03T08:16:04.220Z,32.062
2018-08-03T08:17:03.861Z,31.937
2018-08-03T08:18:03.609Z,31.937
2018-08-03T08:19:04.229Z,32
2018-08-03T08:20:04.081Z,32.125
2018-08-03T08:21:04.259Z,32.187
2018-08-03T08:22:03.528Z,32.312
2018-08-03T08:23:04.208Z,32.5
2018-08-03T08:24:03.701Z,32.562
2018-08-03T08:25:03.830Z,32.5
2018-08-03T08:26:03.751Z,32.562
2018-08-03T08:27:03.951Z,32.812
2018-08-03T08:28:03.522Z,32.687
2018-08-03T08:29:04.154Z,32.812
2018-08-03T08:30:03.846Z,32.937
2018-08-03T08:31:03.461Z,33.062
2018-08-03T08:32:04.002Z,33.187
2018-08-03T08:33:03.659Z,33
2018-08-03T08:34:03.791Z,32.687
2018-08-03T08:35:04.452Z,32.562
2018-08-03T08:36:03.788Z,32.75
2018-08-03T08:37:03.584Z,32.562
2018-08-03T08:38:05.284Z,32.562
2018-08-03T08:39:04.012Z,32.812
2018-08-03T08:40:03.509Z,32.875
2018-08-03T08:41:04.137Z,33.125
2018-08-03T08:42:03.658Z,32.937
2018-08-03T08:43:03.347Z,32.687
2018-08-03T08:44:03.713Z,32.625
2018-08-03T08:45:05.383Z,32.687
2018-08-03T08:46:03.880Z,33
2018-08-03T08:47:03.871Z,33.125
2018-08-03T08:48:03.510Z,33.312
2018-08-03T08:49:04.375Z,33.5
2018-08-03T08:50:03.767Z,33.437
2018-08-03T08:51:03.629Z,33.375
2018-08-03T08:52:04.294Z,33.375
2018-08-03T08:53:04.309Z,33.562
2018-08-03T08:54:03.785Z,33.562
2018-08-03T08:55:04.248Z,33.687
2018-08-03T08:56:03.517Z,33.812
2018-08-03T08:57:04.338Z,33.937
2018-08-03T08:58:03.476Z,33.937
2018-08-03T08:59:03.880Z,33.937
2018-08-03T09:00:03.556Z,33.75
2018-08-03T09:01:04.175Z,33.625
2018-08-03T09:03:03.849Z,33.187
2018-08-03T09:04:03.596Z,33.125
2018-08-03T09:05:04.071Z,32.937
2018-08-03T09:06:03.824Z,33.062
2018-08-03T09:07:03.451Z,33.187
2018-08-03T09:08:04.121Z,33.437
2018-08-03T09:09:03.976Z,33.312
2018-08-03T09:10:03.596Z,33.437
2018-08-03T09:11:04.028Z,33.562
2018-08-03T09:12:03.687Z,33.5
2018-08-03T09:13:04.301Z,33.312
2018-08-03T09:14:03.932Z,33.437
2018-08-03T09:15:03.670Z,33.687
2018-08-03T09:16:04.238Z,33.562
2018-08-03T09:17:04.950Z,33.375
2018-08-03T09:18:03.646Z,33.437
2018-08-03T09:19:04.390Z,33.437
2018-08-03T09:20:04.150Z,33.437
2018-08-03T09:21:03.865Z,33.562
2018-08-03T09:22:03.647Z,33.812
2018-08-03T09:23:04.268Z,33.687
2018-08-03T09:24:03.757Z,33.437
2018-08-03T09:25:03.313Z,32.937
2018-08-03T09:26:04.070Z,32.375
2018-08-03T09:27:03.899Z,32.312
2018-08-03T09:28:03.437Z,32
2018-08-03T09:29:04.128Z,31.875
2018-08-03T09:30:03.838Z,31.875
2018-08-03T09:31:03.554Z,31.875
2018-08-03T09:32:04.056Z,31.75
2018-08-03T09:33:03.867Z,31.875
2018-08-03T09:34:03.439Z,31.875
2018-08-03T09:35:04.099Z,31.875
2018-08-03T09:36:03.853Z,31.875
2018-08-03T09:37:03.614Z,32.125
2018-08-03T09:38:03.561Z,32.25
2018-08-03T09:39:04.532Z,32.187
2018-08-03T09:40:04.215Z,32.062
2018-08-03T09:41:03.453Z,32.062
2018-08-03T09:42:05.027Z,32.125
2018-08-03T09:43:03.641Z,32.187
2018-08-03T09:44:04.144Z,32.125
2018-08-03T09:45:03.807Z,32.062
2018-08-03T09:46:03.417Z,32
2018-08-03T09:47:04.072Z,32.125
2018-08-03T09:48:03.798Z,32.5
2018-08-03T09:49:03.482Z,32.75
2018-08-03T09:50:03.927Z,32.875
2018-08-03T09:51:03.607Z,32.875
2018-08-03T09:52:04.271Z,32.812
2018-08-03T09:53:03.789Z,32.875
2018-08-03T09:54:03.384Z,33
2018-08-03T09:55:04.251Z,33.25
2018-08-03T09:56:03.813Z,33.437
2018-08-03T09:57:03.508Z,33.625
2018-08-03T09:58:04.113Z,33.687
2018-08-03T09:59:03.699Z,33.562
2018-08-03T10:00:03.599Z,33.562
2018-08-03T10:01:04.347Z,33.812
2018-08-03T10:02:03.901Z,34.062
2018-08-03T10:03:03.611Z,34
2018-08-03T10:04:04.207Z,33.75
2018-08-03T10:05:03.504Z,33.687
2018-08-03T10:06:04.204Z,33.75
2018-08-03T10:07:03.366Z,33.812
2018-08-03T10:08:04.109Z,34.062
2018-08-03T10:09:03.748Z,34.187
2018-08-03T10:10:04.184Z,34.125
2018-08-03T10:11:03.458Z,33.937
2018-08-03T10:12:04.190Z,33.875
2018-08-03T10:13:03.775Z,33.812
2018-08-03T10:14:04.312Z,33.812
2018-08-03T10:15:03.849Z,33.25
2018-08-03T10:16:03.524Z,33
2018-08-03T10:17:05.312Z,32.625
2018-08-03T10:18:03.900Z,32.375
2018-08-03T10:19:03.564Z,32.312
2018-08-03T10:20:04.255Z,32.312
2018-08-03T10:21:03.928Z,32.437
2018-08-03T10:22:03.592Z,32.625
2018-08-03T10:23:03.982Z,32.937
2018-08-03T10:24:03.819Z,33.25
2018-08-03T10:25:03.549Z,33.437
2018-08-03T10:26:04.291Z,33.625
2018-08-03T10:27:04.036Z,33.812
2018-08-03T10:28:03.631Z,34.125
2018-08-03T10:29:03.513Z,34.375
2018-08-03T10:30:04.196Z,34.312
2018-08-03T10:31:03.601Z,33.937
2018-08-03T10:32:04.170Z,33.687
2018-08-03T10:33:03.532Z,33.75
2018-08-03T10:34:04.090Z,33.562
2018-08-03T10:35:03.804Z,33.437
2018-08-03T10:36:03.705Z,33.437
2018-08-03T10:37:03.369Z,33.375
2018-08-03T10:38:03.929Z,33.125
2018-08-03T10:39:04.026Z,33.062
2018-08-03T10:40:03.621Z,32.875
2018-08-03T10:41:04.272Z,32.812
2018-08-03T10:42:03.659Z,33.125
2018-08-03T10:43:03.441Z,33.562
2018-08-03T10:44:03.949Z,33.937
2018-08-03T10:45:03.734Z,34.312
2018-08-03T10:46:04.196Z,34.312
2018-08-03T10:47:03.785Z,34
2018-08-03T10:48:03.587Z,33.937
2018-08-03T10:49:04.373Z,33.687
2018-08-03T10:50:04.175Z,33.562
2018-08-03T10:51:03.612Z,33.562
2018-08-03T10:52:04.387Z,33.875
2018-08-03T10:53:03.953Z,34.062
2018-08-03T10:54:03.604Z,34.187
2018-08-03T10:55:04.182Z,34
2018-08-03T10:56:03.620Z,33.75
2018-08-03T10:57:04.282Z,33.812
2018-08-03T10:58:04.059Z,33.937
2018-08-03T10:59:04.239Z,33.937
2018-08-03T11:00:03.757Z,33.875
2018-08-03T11:01:03.452Z,33.812
2018-08-03T11:02:03.789Z,33.75
2018-08-03T11:03:03.331Z,33.562
2018-08-03T11:04:04.030Z,33.25
2018-08-03T11:05:03.503Z,33.187
2018-08-03T11:06:03.935Z,33.062
2018-08-03T11:07:03.696Z,33.187
2018-08-03T11:08:04.257Z,33.125
2018-08-03T11:09:04.319Z,33.437
2018-08-03T11:10:03.358Z,33.687
2018-08-03T11:11:04.121Z,33.812
2018-08-03T11:12:03.623Z,33.812
2018-08-03T11:13:04.140Z,33.75
2018-08-03T11:14:03.859Z,33.687
2018-08-03T11:15:03.354Z,33.625
2018-08-03T11:16:04.074Z,33.375
2018-08-03T11:17:03.742Z,33.437
2018-08-03T11:18:04.238Z,33.375
2018-08-03T11:19:03.793Z,33.375
2018-08-03T11:20:03.521Z,33.437
2018-08-03T11:21:04.139Z,33.25
2018-08-03T11:22:03.618Z,33.125
2018-08-03T11:23:04.255Z,33.062
2018-08-03T11:24:03.869Z,32.937
2018-08-03T11:25:03.557Z,32.875
2018-08-03T11:26:04.306Z,32.812
2018-08-03T11:27:04.154Z,33
2018-08-03T11:28:03.740Z,33.125
2018-08-03T11:29:03.489Z,33.125
2018-08-03T11:30:04.183Z,33.125
2018-08-03T11:31:03.830Z,33.25
2018-08-03T11:32:03.558Z,33.187
2018-08-03T11:33:04.351Z,33.25
2018-08-03T11:34:03.908Z,33.25
2018-08-03T11:35:03.463Z,33.187
2018-08-03T11:36:04.096Z,33.187
2018-08-03T11:37:03.742Z,33.25
2018-08-03T11:38:04.263Z,33.437
2018-08-03T11:39:04.447Z,33.687
2018-08-03T11:40:03.953Z,33.812
2018-08-03T11:41:03.591Z,33.875
2018-08-03T11:42:04.439Z,33.75
2018-08-03T11:43:03.818Z,33.75
2018-08-03T11:44:03.381Z,33.5
2018-08-03T11:45:04.092Z,33.437
2018-08-03T11:46:03.668Z,33.375
2018-08-03T11:47:04.165Z,33.312
2018-08-03T11:48:03.715Z,33.437
2018-08-03T11:49:03.820Z,33.625
2018-08-03T11:50:03.428Z,33.812
2018-08-03T11:51:05.727Z,33.937
2018-08-03T11:52:03.458Z,33.937
2018-08-03T11:53:04.281Z,34
2018-08-03T11:54:03.990Z,33.937
2018-08-03T11:55:03.896Z,34
2018-08-03T11:56:03.344Z,34.062
2018-08-03T11:57:03.870Z,34.187
2018-08-03T11:58:03.491Z,34.25
2018-08-03T11:59:04.076Z,34.375
2018-08-03T12:00:03.803Z,34.437
2018-08-03T12:01:04.018Z,34.437
2018-08-03T12:02:03.622Z,34.125
2018-08-03T12:03:04.290Z,33.75
2018-08-03T12:04:03.835Z,33.625
2018-08-03T12:05:03.752Z,33.375
2018-08-03T12:06:05.314Z,33.312
2018-08-03T12:07:03.823Z,33.312
2018-08-03T12:08:03.549Z,33.125
2018-08-03T12:09:05.364Z,33.125
2018-08-03T12:10:03.944Z,33.125
2018-08-03T12:11:03.547Z,33
2018-08-03T12:12:04.166Z,32.875
2018-08-03T12:13:03.637Z,32.875
2018-08-03T12:14:04.307Z,33
2018-08-03T12:15:03.877Z,33
2018-08-03T12:16:03.473Z,33
2018-08-03T12:17:03.502Z,33.062
2018-08-03T12:18:04.062Z,33.187
2018-08-03T12:19:03.593Z,33.375
2018-08-03T12:20:03.358Z,33.5
2018-08-03T12:21:04.137Z,33.562
2018-08-03T12:22:03.598Z,33.5
2018-08-03T12:23:04.149Z,33.312
2018-08-03T12:24:03.536Z,33.312
2018-08-03T12:25:04.303Z,33.437
2018-08-03T12:26:03.611Z,33.5
2018-08-03T12:27:04.288Z,33.437
2018-08-03T12:28:03.725Z,33.5
2018-08-03T12:29:04.172Z,33.437
2018-08-03T12:30:03.501Z,33.312
2018-08-03T12:31:03.592Z,33.312
2018-08-03T12:32:04.224Z,33.437
2018-08-03T12:33:03.666Z,33.437
2018-08-03T12:34:03.345Z,33.625
2018-08-03T12:35:03.891Z,33.75
2018-08-03T12:36:04.251Z,33.75
2018-08-03T12:37:03.787Z,33.687
2018-08-03T12:38:04.207Z,33.437
2018-08-03T12:39:03.899Z,33.187
2018-08-03T12:40:04.239Z,33.187
2018-08-03T12:41:03.726Z,33.187
2018-08-03T12:42:03.379Z,33.187
2018-08-03T12:43:03.966Z,33.312
2018-08-03T12:44:03.463Z,33.5